Terminal Aerodrome Forecast
Issued by NWS

Current Version | Previous Version | Text Only | Print | Product List | Glossary On
Versions: 1 2 3 4 5 6 7 8 9 10 11 12 13
258 FTUS41 KILN 260943 AAA TAFLCK TAF AMD KLCK 260943Z 2610/2706 00000KT P6SM SKC TEMPO 2610/2612 5SM BR FM261600 27003KT P6SM FEW050 FM270000 VRB03KT P6SM SKC=

USA.gov is the U.S. government's official web portal to all federal, state and local government web resources and services.